sensor_id;sensor_type;location;lat;lon;timestamp;P1;durP1;ratioP1;P2;durP2;ratioP2
4650;SDS011;2338;49.602;8.722;2023-12-07T00:00:06;15.35;;;11.05;;
4650;SDS011;2338;49.602;8.722;2023-12-07T00:02:53;16.77;;;12.38;;
4650;SDS011;2338;49.602;8.722;2023-12-07T00:05:40;13.63;;;10.70;;
4650;SDS011;2338;49.602;8.722;2023-12-07T00:08:25;14.15;;;11.07;;
4650;SDS011;2338;49.602;8.722;2023-12-07T00:11:11;15.50;;;12.05;;
4650;SDS011;2338;49.602;8.722;2023-12-07T00:13:57;14.90;;;12.18;;
4650;SDS011;2338;49.602;8.722;2023-12-07T00:16:42;19.10;;;13.40;;
4650;SDS011;2338;49.602;8.722;2023-12-07T00:19:28;16.30;;;11.93;;
4650;SDS011;2338;49.602;8.722;2023-12-07T00:22:15;16.35;;;12.65;;
4650;SDS011;2338;49.602;8.722;2023-12-07T00:25:01;16.45;;;13.27;;
4650;SDS011;2338;49.602;8.722;2023-12-07T00:27:47;19.30;;;12.95;;
4650;SDS011;2338;49.602;8.722;2023-12-07T00:30:33;17.65;;;12.40;;
4650;SDS011;2338;49.602;8.722;2023-12-07T00:33:19;19.45;;;13.55;;
4650;SDS011;2338;49.602;8.722;2023-12-07T00:36:06;16.52;;;11.50;;
4650;SDS011;2338;49.602;8.722;2023-12-07T00:38:54;19.30;;;13.30;;
4650;SDS011;2338;49.602;8.722;2023-12-07T00:41:40;17.30;;;12.30;;
4650;SDS011;2338;49.602;8.722;2023-12-07T00:44:25;15.60;;;12.73;;
4650;SDS011;2338;49.602;8.722;2023-12-07T00:47:11;17.40;;;13.52;;
4650;SDS011;2338;49.602;8.722;2023-12-07T00:49:57;18.75;;;13.32;;
4650;SDS011;2338;49.602;8.722;2023-12-07T00:52:42;23.00;;;13.88;;
4650;SDS011;2338;49.602;8.722;2023-12-07T00:55:30;17.85;;;13.30;;
4650;SDS011;2338;49.602;8.722;2023-12-07T00:58:16;18.60;;;12.88;;
4650;SDS011;2338;49.602;8.722;2023-12-07T01:01:02;17.27;;;12.25;;
4650;SDS011;2338;49.602;8.722;2023-12-07T01:03:48;17.30;;;12.00;;
4650;SDS011;2338;49.602;8.722;2023-12-07T01:06:33;16.77;;;12.52;;
4650;SDS011;2338;49.602;8.722;2023-12-07T01:09:19;20.10;;;13.40;;
4650;SDS011;2338;49.602;8.722;2023-12-07T01:12:07;18.70;;;12.68;;
4650;SDS011;2338;49.602;8.722;2023-12-07T01:14:52;19.20;;;12.80;;
4650;SDS011;2338;49.602;8.722;2023-12-07T01:17:39;16.63;;;12.50;;
4650;SDS011;2338;49.602;8.722;2023-12-07T01:20:24;16.90;;;12.77;;
4650;SDS011;2338;49.602;8.722;2023-12-07T01:23:10;15.93;;;12.98;;
4650;SDS011;2338;49.602;8.722;2023-12-07T01:25:56;17.67;;;12.57;;
4650;SDS011;2338;49.602;8.722;2023-12-07T01:28:43;17.77;;;12.95;;
4650;SDS011;2338;49.602;8.722;2023-12-07T01:31:29;17.75;;;12.20;;
4650;SDS011;2338;49.602;8.722;2023-12-07T01:34:14;14.13;;;11.43;;
4650;SDS011;2338;49.602;8.722;2023-12-07T01:37:02;14.02;;;11.63;;
4650;SDS011;2338;49.602;8.722;2023-12-07T01:39:47;16.08;;;12.10;;
4650;SDS011;2338;49.602;8.722;2023-12-07T01:42:33;14.40;;;11.23;;
4650;SDS011;2338;49.602;8.722;2023-12-07T01:45:20;18.35;;;13.68;;
4650;SDS011;2338;49.602;8.722;2023-12-07T01:48:06;17.20;;;13.38;;
4650;SDS011;2338;49.602;8.722;2023-12-07T01:50:52;17.02;;;12.57;;
4650;SDS011;2338;49.602;8.722;2023-12-07T01:53:38;16.10;;;11.95;;
4650;SDS011;2338;49.602;8.722;2023-12-07T01:56:24;15.85;;;11.98;;
4650;SDS011;2338;49.602;8.722;2023-12-07T01:59:11;15.65;;;12.60;;
4650;SDS011;2338;49.602;8.722;2023-12-07T02:01:58;15.35;;;12.35;;
4650;SDS011;2338;49.602;8.722;2023-12-07T02:04:44;23.88;;;14.45;;
4650;SDS011;2338;49.602;8.722;2023-12-07T02:07:29;18.63;;;11.50;;
4650;SDS011;2338;49.602;8.722;2023-12-07T02:10:16;15.98;;;12.13;;
4650;SDS011;2338;49.602;8.722;2023-12-07T02:13:03;16.92;;;12.57;;
4650;SDS011;2338;49.602;8.722;2023-12-07T02:15:49;16.73;;;11.55;;
4650;SDS011;2338;49.602;8.722;2023-12-07T02:18:38;20.48;;;12.73;;
4650;SDS011;2338;49.602;8.722;2023-12-07T02:21:30;14.65;;;12.07;;
4650;SDS011;2338;49.602;8.722;2023-12-07T02:24:21;15.82;;;12.60;;
4650;SDS011;2338;49.602;8.722;2023-12-07T02:27:11;18.50;;;12.73;;
4650;SDS011;2338;49.602;8.722;2023-12-07T02:29:56;17.73;;;11.93;;
4650;SDS011;2338;49.602;8.722;2023-12-07T02:32:43;17.05;;;13.25;;
4650;SDS011;2338;49.602;8.722;2023-12-07T02:35:30;19.40;;;13.82;;
4650;SDS011;2338;49.602;8.722;2023-12-07T02:38:17;19.58;;;12.73;;
4650;SDS011;2338;49.602;8.722;2023-12-07T02:41:05;14.25;;;11.40;;
4650;SDS011;2338;49.602;8.722;2023-12-07T02:43:53;17.13;;;13.07;;
4650;SDS011;2338;49.602;8.722;2023-12-07T02:46:39;15.18;;;12.20;;
4650;SDS011;2338;49.602;8.722;2023-12-07T02:49:24;17.80;;;13.57;;
4650;SDS011;2338;49.602;8.722;2023-12-07T02:52:10;20.75;;;13.90;;
4650;SDS011;2338;49.602;8.722;2023-12-07T02:54:56;17.77;;;13.50;;
4650;SDS011;2338;49.602;8.722;2023-12-07T02:57:42;18.15;;;12.95;;
4650;SDS011;2338;49.602;8.722;2023-12-07T03:00:29;22.55;;;13.00;;
4650;SDS011;2338;49.602;8.722;2023-12-07T03:03:15;19.10;;;13.32;;
4650;SDS011;2338;49.602;8.722;2023-12-07T03:06:00;19.63;;;13.35;;
4650;SDS011;2338;49.602;8.722;2023-12-07T03:08:46;20.40;;;15.55;;
4650;SDS011;2338;49.602;8.722;2023-12-07T03:11:32;18.92;;;14.52;;
4650;SDS011;2338;49.602;8.722;2023-12-07T03:14:18;19.83;;;13.38;;
4650;SDS011;2338;49.602;8.722;2023-12-07T03:17:05;22.67;;;14.13;;
4650;SDS011;2338;49.602;8.722;2023-12-07T03:19:51;19.55;;;12.57;;
4650;SDS011;2338;49.602;8.722;2023-12-07T03:22:36;21.90;;;15.20;;
4650;SDS011;2338;49.602;8.722;2023-12-07T03:25:23;26.58;;;15.32;;
4650;SDS011;2338;49.602;8.722;2023-12-07T03:28:08;124.65;;;19.20;;
4650;SDS011;2338;49.602;8.722;2023-12-07T03:30:54;33.13;;;15.43;;
4650;SDS011;2338;49.602;8.722;2023-12-07T03:33:42;29.83;;;15.63;;
4650;SDS011;2338;49.602;8.722;2023-12-07T03:36:28;23.40;;;14.55;;
4650;SDS011;2338;49.602;8.722;2023-12-07T03:39:14;36.00;;;16.60;;
4650;SDS011;2338;49.602;8.722;2023-12-07T03:42:02;56.55;;;17.08;;
4650;SDS011;2338;49.602;8.722;2023-12-07T03:44:48;61.45;;;17.70;;
4650;SDS011;2338;49.602;8.722;2023-12-07T03:47:33;30.70;;;16.50;;
4650;SDS011;2338;49.602;8.722;2023-12-07T03:50:20;21.17;;;16.25;;
4650;SDS011;2338;49.602;8.722;2023-12-07T03:53:06;69.25;;;17.33;;
4650;SDS011;2338;49.602;8.722;2023-12-07T03:55:53;72.95;;;16.65;;
4650;SDS011;2338;49.602;8.722;2023-12-07T03:58:39;21.83;;;15.57;;
4650;SDS011;2338;49.602;8.722;2023-12-07T04:01:25;32.72;;;15.60;;
4650;SDS011;2338;49.602;8.722;2023-12-07T04:04:11;72.60;;;15.85;;
4650;SDS011;2338;49.602;8.722;2023-12-07T04:06:58;58.08;;;16.85;;
4650;SDS011;2338;49.602;8.722;2023-12-07T04:09:44;107.38;;;16.00;;
4650;SDS011;2338;49.602;8.722;2023-12-07T04:12:30;109.00;;;16.50;;
4650;SDS011;2338;49.602;8.722;2023-12-07T04:15:15;69.97;;;15.45;;
4650;SDS011;2338;49.602;8.722;2023-12-07T04:18:01;149.75;;;16.13;;
4650;SDS011;2338;49.602;8.722;2023-12-07T04:20:47;64.63;;;16.88;;
4650;SDS011;2338;49.602;8.722;2023-12-07T04:23:34;24.45;;;14.65;;
4650;SDS011;2338;49.602;8.722;2023-12-07T04:26:20;15.95;;;13.80;;
4650;SDS011;2338;49.602;8.722;2023-12-07T04:29:05;38.35;;;14.88;;
4650;SDS011;2338;49.602;8.722;2023-12-07T04:31:51;30.83;;;14.07;;
4650;SDS011;2338;49.602;8.722;2023-12-07T04:34:37;56.10;;;14.38;;
4650;SDS011;2338;49.602;8.722;2023-12-07T04:37:23;25.55;;;15.07;;
4650;SDS011;2338;49.602;8.722;2023-12-07T04:40:11;49.10;;;15.60;;
4650;SDS011;2338;49.602;8.722;2023-12-07T04:42:57;35.75;;;14.65;;
4650;SDS011;2338;49.602;8.722;2023-12-07T04:45:42;34.45;;;14.35;;
4650;SDS011;2338;49.602;8.722;2023-12-07T04:48:28;53.05;;;14.65;;
4650;SDS011;2338;49.602;8.722;2023-12-07T04:51:14;50.13;;;15.23;;
4650;SDS011;2338;49.602;8.722;2023-12-07T04:54:00;24.33;;;14.77;;
4650;SDS011;2338;49.602;8.722;2023-12-07T04:56:47;16.50;;;14.60;;
4650;SDS011;2338;49.602;8.722;2023-12-07T04:59:32;30.40;;;14.80;;
4650;SDS011;2338;49.602;8.722;2023-12-07T05:02:19;21.17;;;14.07;;
4650;SDS011;2338;49.602;8.722;2023-12-07T05:05:05;25.20;;;16.15;;
4650;SDS011;2338;49.602;8.722;2023-12-07T05:07:51;37.33;;;17.48;;
4650;SDS011;2338;49.602;8.722;2023-12-07T05:10:37;83.53;;;17.20;;
4650;SDS011;2338;49.602;8.722;2023-12-07T05:13:24;23.80;;;16.90;;
4650;SDS011;2338;49.602;8.722;2023-12-07T05:16:09;40.58;;;17.05;;
4650;SDS011;2338;49.602;8.722;2023-12-07T05:18:55;26.10;;;16.10;;
4650;SDS011;2338;49.602;8.722;2023-12-07T05:21:41;21.90;;;16.38;;
4650;SDS011;2338;49.602;8.722;2023-12-07T05:24:27;28.90;;;17.83;;
4650;SDS011;2338;49.602;8.722;2023-12-07T05:27:14;33.55;;;16.90;;
4650;SDS011;2338;49.602;8.722;2023-12-07T05:30:01;20.90;;;15.82;;
4650;SDS011;2338;49.602;8.722;2023-12-07T05:32:46;23.75;;;17.38;;
4650;SDS011;2338;49.602;8.722;2023-12-07T05:35:32;22.15;;;16.60;;
4650;SDS011;2338;49.602;8.722;2023-12-07T05:38:18;21.00;;;16.05;;
4650;SDS011;2338;49.602;8.722;2023-12-07T05:41:04;20.10;;;15.73;;
4650;SDS011;2338;49.602;8.722;2023-12-07T05:43:50;24.25;;;15.82;;
4650;SDS011;2338;49.602;8.722;2023-12-07T05:46:38;22.85;;;15.45;;
4650;SDS011;2338;49.602;8.722;2023-12-07T05:49:28;20.58;;;15.32;;
4650;SDS011;2338;49.602;8.722;2023-12-07T05:52:13;17.83;;;14.98;;
4650;SDS011;2338;49.602;8.722;2023-12-07T05:54:59;20.95;;;15.90;;
4650;SDS011;2338;49.602;8.722;2023-12-07T05:57:45;18.80;;;14.80;;
4650;SDS011;2338;49.602;8.722;2023-12-07T06:00:30;18.95;;;15.13;;
4650;SDS011;2338;49.602;8.722;2023-12-07T06:03:17;21.80;;;15.95;;
4650;SDS011;2338;49.602;8.722;2023-12-07T06:06:03;17.40;;;14.43;;
4650;SDS011;2338;49.602;8.722;2023-12-07T06:08:49;19.88;;;15.20;;
4650;SDS011;2338;49.602;8.722;2023-12-07T06:11:35;18.00;;;14.73;;
4650;SDS011;2338;49.602;8.722;2023-12-07T06:14:21;19.65;;;13.23;;
4650;SDS011;2338;49.602;8.722;2023-12-07T06:17:06;18.48;;;14.55;;
4650;SDS011;2338;49.602;8.722;2023-12-07T06:19:53;17.25;;;14.43;;
4650;SDS011;2338;49.602;8.722;2023-12-07T06:22:39;24.45;;;13.85;;
4650;SDS011;2338;49.602;8.722;2023-12-07T06:25:25;17.98;;;14.77;;
4650;SDS011;2338;49.602;8.722;2023-12-07T06:28:10;17.13;;;15.00;;
4650;SDS011;2338;49.602;8.722;2023-12-07T06:30:56;18.88;;;14.95;;
4650;SDS011;2338;49.602;8.722;2023-12-07T06:33:42;27.77;;;15.20;;
4650;SDS011;2338;49.602;8.722;2023-12-07T06:36:29;17.60;;;14.57;;
4650;SDS011;2338;49.602;8.722;2023-12-07T06:39:15;19.52;;;14.82;;
4650;SDS011;2338;49.602;8.722;2023-12-07T06:42:00;19.80;;;15.68;;
4650;SDS011;2338;49.602;8.722;2023-12-07T06:44:46;18.58;;;15.35;;
4650;SDS011;2338;49.602;8.722;2023-12-07T06:47:33;17.80;;;15.38;;
4650;SDS011;2338;49.602;8.722;2023-12-07T06:50:19;19.70;;;15.27;;
4650;SDS011;2338;49.602;8.722;2023-12-07T06:53:06;24.20;;;15.93;;
4650;SDS011;2338;49.602;8.722;2023-12-07T06:55:52;20.10;;;15.40;;
4650;SDS011;2338;49.602;8.722;2023-12-07T06:58:37;17.52;;;14.50;;
4650;SDS011;2338;49.602;8.722;2023-12-07T07:01:23;19.48;;;15.55;;
4650;SDS011;2338;49.602;8.722;2023-12-07T07:04:10;18.92;;;14.65;;
4650;SDS011;2338;49.602;8.722;2023-12-07T07:06:56;22.85;;;15.70;;
4650;SDS011;2338;49.602;8.722;2023-12-07T07:09:43;18.52;;;14.52;;
4650;SDS011;2338;49.602;8.722;2023-12-07T07:12:29;19.67;;;13.45;;
4650;SDS011;2338;49.602;8.722;2023-12-07T07:15:15;18.42;;;14.48;;
4650;SDS011;2338;49.602;8.722;2023-12-07T07:18:01;16.27;;;12.93;;
4650;SDS011;2338;49.602;8.722;2023-12-07T07:20:46;20.33;;;13.90;;
4650;SDS011;2338;49.602;8.722;2023-12-07T07:23:33;15.68;;;12.43;;
4650;SDS011;2338;49.602;8.722;2023-12-07T07:26:21;16.95;;;13.88;;
4650;SDS011;2338;49.602;8.722;2023-12-07T07:29:08;20.38;;;14.20;;
4650;SDS011;2338;49.602;8.722;2023-12-07T07:31:54;19.55;;;14.45;;
4650;SDS011;2338;49.602;8.722;2023-12-07T07:34:40;17.40;;;13.45;;
4650;SDS011;2338;49.602;8.722;2023-12-07T07:37:26;20.25;;;13.55;;
4650;SDS011;2338;49.602;8.722;2023-12-07T07:40:12;24.35;;;13.93;;
4650;SDS011;2338;49.602;8.722;2023-12-07T07:42:59;17.58;;;14.10;;
4650;SDS011;2338;49.602;8.722;2023-12-07T07:45:45;16.10;;;13.25;;
4650;SDS011;2338;49.602;8.722;2023-12-07T07:48:31;17.92;;;13.95;;
4650;SDS011;2338;49.602;8.722;2023-12-07T07:51:16;17.27;;;14.38;;
4650;SDS011;2338;49.602;8.722;2023-12-07T07:54:02;19.25;;;12.60;;
4650;SDS011;2338;49.602;8.722;2023-12-07T07:56:48;16.67;;;12.75;;
4650;SDS011;2338;49.602;8.722;2023-12-07T07:59:35;19.00;;;14.63;;
4650;SDS011;2338;49.602;8.722;2023-12-07T08:02:21;18.77;;;14.35;;
4650;SDS011;2338;49.602;8.722;2023-12-07T08:05:06;19.05;;;13.25;;
4650;SDS011;2338;49.602;8.722;2023-12-07T08:07:53;21.17;;;13.88;;
4650;SDS011;2338;49.602;8.722;2023-12-07T08:10:38;25.42;;;18.10;;
4650;SDS011;2338;49.602;8.722;2023-12-07T08:13:24;23.92;;;17.48;;
4650;SDS011;2338;49.602;8.722;2023-12-07T08:16:11;27.48;;;17.63;;
4650;SDS011;2338;49.602;8.722;2023-12-07T08:18:57;32.33;;;18.60;;
4650;SDS011;2338;49.602;8.722;2023-12-07T08:21:42;49.03;;;21.10;;
4650;SDS011;2338;49.602;8.722;2023-12-07T08:24:28;38.72;;;23.90;;
4650;SDS011;2338;49.602;8.722;2023-12-07T08:27:14;87.43;;;25.65;;
4650;SDS011;2338;49.602;8.722;2023-12-07T08:29:59;169.75;;;26.55;;
4650;SDS011;2338;49.602;8.722;2023-12-07T08:32:47;200.85;;;26.98;;
4650;SDS011;2338;49.602;8.722;2023-12-07T08:35:33;250.82;;;29.30;;
4650;SDS011;2338;49.602;8.722;2023-12-07T08:38:18;225.10;;;26.33;;
4650;SDS011;2338;49.602;8.722;2023-12-07T08:41:05;238.38;;;28.50;;
4650;SDS011;2338;49.602;8.722;2023-12-07T08:43:51;54.30;;;24.98;;
4650;SDS011;2338;49.602;8.722;2023-12-07T08:46:36;60.78;;;24.45;;
4650;SDS011;2338;49.602;8.722;2023-12-07T08:49:24;244.23;;;23.85;;
4650;SDS011;2338;49.602;8.722;2023-12-07T08:52:09;64.32;;;20.70;;
4650;SDS011;2338;49.602;8.722;2023-12-07T08:54:55;53.97;;;20.15;;
4650;SDS011;2338;49.602;8.722;2023-12-07T08:57:41;32.17;;;19.83;;
4650;SDS011;2338;49.602;8.722;2023-12-07T09:00:27;101.97;;;22.92;;
4650;SDS011;2338;49.602;8.722;2023-12-07T09:03:12;24.92;;;19.30;;
4650;SDS011;2338;49.602;8.722;2023-12-07T09:05:59;48.40;;;17.95;;
4650;SDS011;2338;49.602;8.722;2023-12-07T09:08:46;45.03;;;18.13;;
4650;SDS011;2338;49.602;8.722;2023-12-07T09:11:32;117.22;;;43.35;;
4650;SDS011;2338;49.602;8.722;2023-12-07T09:14:17;51.05;;;29.23;;
4650;SDS011;2338;49.602;8.722;2023-12-07T09:17:03;41.13;;;22.38;;
4650;SDS011;2338;49.602;8.722;2023-12-07T09:19:49;41.33;;;22.27;;
4650;SDS011;2338;49.602;8.722;2023-12-07T09:22:36;56.90;;;20.95;;
4650;SDS011;2338;49.602;8.722;2023-12-07T09:27:49;63.45;;;22.08;;
4650;SDS011;2338;49.602;8.722;2023-12-07T09:30:35;51.45;;;21.63;;
4650;SDS011;2338;49.602;8.722;2023-12-07T09:33:20;46.83;;;20.65;;
4650;SDS011;2338;49.602;8.722;2023-12-07T09:36:07;47.05;;;20.92;;
4650;SDS011;2338;49.602;8.722;2023-12-07T09:38:56;38.67;;;19.83;;
4650;SDS011;2338;49.602;8.722;2023-12-07T09:41:42;33.85;;;19.83;;
4650;SDS011;2338;49.602;8.722;2023-12-07T09:44:30;27.35;;;19.15;;
4650;SDS011;2338;49.602;8.722;2023-12-07T09:47:16;27.42;;;20.42;;
4650;SDS011;2338;49.602;8.722;2023-12-07T09:50:02;26.25;;;20.48;;
4650;SDS011;2338;49.602;8.722;2023-12-07T09:52:49;22.70;;;17.65;;
4650;SDS011;2338;49.602;8.722;2023-12-07T09:55:37;25.02;;;18.45;;
4650;SDS011;2338;49.602;8.722;2023-12-07T09:58:22;31.02;;;18.58;;
4650;SDS011;2338;49.602;8.722;2023-12-07T10:01:09;26.20;;;19.50;;
4650;SDS011;2338;49.602;8.722;2023-12-07T10:04:16;29.35;;;20.05;;
4650;SDS011;2338;49.602;8.722;2023-12-07T10:07:04;24.33;;;16.88;;
4650;SDS011;2338;49.602;8.722;2023-12-07T10:09:52;25.70;;;18.40;;
4650;SDS011;2338;49.602;8.722;2023-12-07T10:12:45;25.23;;;18.13;;
4650;SDS011;2338;49.602;8.722;2023-12-07T10:15:32;26.80;;;15.80;;
4650;SDS011;2338;49.602;8.722;2023-12-07T10:18:19;25.38;;;18.15;;
4650;SDS011;2338;49.602;8.722;2023-12-07T10:21:08;27.45;;;17.77;;
4650;SDS011;2338;49.602;8.722;2023-12-07T10:23:54;25.80;;;19.33;;
4650;SDS011;2338;49.602;8.722;2023-12-07T10:26:40;22.58;;;16.30;;
4650;SDS011;2338;49.602;8.722;2023-12-07T10:29:27;23.27;;;15.20;;
4650;SDS011;2338;49.602;8.722;2023-12-07T10:32:13;25.23;;;15.77;;
4650;SDS011;2338;49.602;8.722;2023-12-07T10:34:59;18.92;;;15.07;;
4650;SDS011;2338;49.602;8.722;2023-12-07T10:37:45;20.58;;;14.13;;
4650;SDS011;2338;49.602;8.722;2023-12-07T10:40:31;18.55;;;13.27;;
4650;SDS011;2338;49.602;8.722;2023-12-07T10:43:17;19.10;;;13.67;;
4650;SDS011;2338;49.602;8.722;2023-12-07T10:46:06;19.02;;;12.13;;
4650;SDS011;2338;49.602;8.722;2023-12-07T10:48:55;18.80;;;13.25;;
4650;SDS011;2338;49.602;8.722;2023-12-07T10:51:45;17.70;;;12.52;;
4650;SDS011;2338;49.602;8.722;2023-12-07T10:54:37;16.55;;;9.73;;
4650;SDS011;2338;49.602;8.722;2023-12-07T10:57:29;13.90;;;10.00;;
4650;SDS011;2338;49.602;8.722;2023-12-07T11:00:15;13.32;;;10.20;;
4650;SDS011;2338;49.602;8.722;2023-12-07T11:03:03;14.80;;;9.98;;
4650;SDS011;2338;49.602;8.722;2023-12-07T11:05:50;14.40;;;10.23;;
4650;SDS011;2338;49.602;8.722;2023-12-07T11:08:36;11.70;;;9.30;;
4650;SDS011;2338;49.602;8.722;2023-12-07T11:11:28;14.05;;;8.77;;
4650;SDS011;2338;49.602;8.722;2023-12-07T11:14:16;10.40;;;7.82;;
4650;SDS011;2338;49.602;8.722;2023-12-07T11:17:02;11.93;;;9.45;;
4650;SDS011;2338;49.602;8.722;2023-12-07T11:19:50;13.07;;;8.68;;
4650;SDS011;2338;49.602;8.722;2023-12-07T11:22:36;15.27;;;10.27;;
4650;SDS011;2338;49.602;8.722;2023-12-07T11:25:21;11.82;;;9.15;;
4650;SDS011;2338;49.602;8.722;2023-12-07T11:28:07;14.90;;;9.82;;
4650;SDS011;2338;49.602;8.722;2023-12-07T11:30:53;12.93;;;9.40;;
4650;SDS011;2338;49.602;8.722;2023-12-07T11:33:40;12.82;;;9.65;;
4650;SDS011;2338;49.602;8.722;2023-12-07T11:36:28;16.08;;;8.90;;
4650;SDS011;2338;49.602;8.722;2023-12-07T11:39:16;13.40;;;10.68;;
4650;SDS011;2338;49.602;8.722;2023-12-07T11:42:10;15.65;;;10.65;;
4650;SDS011;2338;49.602;8.722;2023-12-07T11:44:57;12.32;;;9.70;;
4650;SDS011;2338;49.602;8.722;2023-12-07T11:47:43;12.57;;;9.43;;
4650;SDS011;2338;49.602;8.722;2023-12-07T11:50:32;16.02;;;10.32;;
4650;SDS011;2338;49.602;8.722;2023-12-07T11:53:21;18.13;;;9.82;;
4650;SDS011;2338;49.602;8.722;2023-12-07T11:56:08;16.13;;;10.57;;
4650;SDS011;2338;49.602;8.722;2023-12-07T11:58:54;14.68;;;10.07;;
4650;SDS011;2338;49.602;8.722;2023-12-07T12:01:45;12.60;;;8.20;;
4650;SDS011;2338;49.602;8.722;2023-12-07T12:04:32;13.65;;;9.27;;
4650;SDS011;2338;49.602;8.722;2023-12-07T12:07:17;12.57;;;8.35;;
4650;SDS011;2338;49.602;8.722;2023-12-07T12:10:05;14.50;;;9.70;;
4650;SDS011;2338;49.602;8.722;2023-12-07T12:12:51;16.17;;;9.70;;
4650;SDS011;2338;49.602;8.722;2023-12-07T12:15:39;13.55;;;8.77;;
4650;SDS011;2338;49.602;8.722;2023-12-07T12:18:25;14.20;;;10.10;;
4650;SDS011;2338;49.602;8.722;2023-12-07T12:21:11;13.57;;;9.07;;
4650;SDS011;2338;49.602;8.722;2023-12-07T12:23:57;17.42;;;9.95;;
4650;SDS011;2338;49.602;8.722;2023-12-07T12:26:44;14.75;;;9.48;;
4650;SDS011;2338;49.602;8.722;2023-12-07T12:29:32;14.68;;;9.90;;
4650;SDS011;2338;49.602;8.722;2023-12-07T12:32:18;10.98;;;8.38;;
4650;SDS011;2338;49.602;8.722;2023-12-07T12:35:06;12.63;;;9.48;;
4650;SDS011;2338;49.602;8.722;2023-12-07T12:37:53;11.25;;;7.85;;
4650;SDS011;2338;49.602;8.722;2023-12-07T12:40:39;9.60;;;7.35;;
4650;SDS011;2338;49.602;8.722;2023-12-07T12:43:27;12.63;;;7.20;;
4650;SDS011;2338;49.602;8.722;2023-12-07T12:46:14;11.13;;;7.27;;
4650;SDS011;2338;49.602;8.722;2023-12-07T12:49:00;8.57;;;6.87;;
4650;SDS011;2338;49.602;8.722;2023-12-07T12:51:46;10.70;;;6.93;;
4650;SDS011;2338;49.602;8.722;2023-12-07T12:54:32;9.90;;;6.70;;
4650;SDS011;2338;49.602;8.722;2023-12-07T12:57:18;11.30;;;7.97;;
4650;SDS011;2338;49.602;8.722;2023-12-07T13:00:06;11.40;;;7.60;;
4650;SDS011;2338;49.602;8.722;2023-12-07T13:02:52;12.40;;;7.70;;
4650;SDS011;2338;49.602;8.722;2023-12-07T13:05:38;12.07;;;7.53;;
4650;SDS011;2338;49.602;8.722;2023-12-07T13:08:23;9.97;;;6.83;;
4650;SDS011;2338;49.602;8.722;2023-12-07T13:11:09;10.70;;;7.83;;
4650;SDS011;2338;49.602;8.722;2023-12-07T13:13:59;11.33;;;7.33;;
4650;SDS011;2338;49.602;8.722;2023-12-07T13:16:51;12.90;;;8.13;;
4650;SDS011;2338;49.602;8.722;2023-12-07T13:19:37;11.17;;;8.10;;
4650;SDS011;2338;49.602;8.722;2023-12-07T13:22:22;11.37;;;7.67;;
4650;SDS011;2338;49.602;8.722;2023-12-07T13:25:08;10.57;;;7.80;;
4650;SDS011;2338;49.602;8.722;2023-12-07T13:27:56;10.67;;;7.80;;
4650;SDS011;2338;49.602;8.722;2023-12-07T13:30:41;11.53;;;7.33;;
4650;SDS011;2338;49.602;8.722;2023-12-07T13:33:28;13.93;;;9.10;;
4650;SDS011;2338;49.602;8.722;2023-12-07T13:36:14;15.75;;;9.45;;
4650;SDS011;2338;49.602;8.722;2023-12-07T13:39:01;15.53;;;9.47;;
4650;SDS011;2338;49.602;8.722;2023-12-07T13:41:47;16.70;;;10.27;;
4650;SDS011;2338;49.602;8.722;2023-12-07T13:44:33;12.82;;;9.07;;
4650;SDS011;2338;49.602;8.722;2023-12-07T13:47:19;13.10;;;9.20;;
4650;SDS011;2338;49.602;8.722;2023-12-07T13:50:10;15.63;;;10.07;;
4650;SDS011;2338;49.602;8.722;2023-12-07T13:52:55;14.50;;;10.70;;
4650;SDS011;2338;49.602;8.722;2023-12-07T13:55:41;12.63;;;9.35;;
4650;SDS011;2338;49.602;8.722;2023-12-07T13:58:26;14.43;;;9.00;;
4650;SDS011;2338;49.602;8.722;2023-12-07T14:01:12;18.30;;;9.98;;
4650;SDS011;2338;49.602;8.722;2023-12-07T14:03:58;16.13;;;10.07;;
4650;SDS011;2338;49.602;8.722;2023-12-07T14:06:47;16.15;;;10.93;;
4650;SDS011;2338;49.602;8.722;2023-12-07T14:09:32;22.45;;;10.52;;
4650;SDS011;2338;49.602;8.722;2023-12-07T14:12:18;12.65;;;9.00;;
4650;SDS011;2338;49.602;8.722;2023-12-07T14:15:04;22.35;;;11.48;;
4650;SDS011;2338;49.602;8.722;2023-12-07T14:17:51;14.80;;;10.23;;
4650;SDS011;2338;49.602;8.722;2023-12-07T14:20:37;13.60;;;9.70;;
4650;SDS011;2338;49.602;8.722;2023-12-07T14:23:24;14.70;;;10.25;;
4650;SDS011;2338;49.602;8.722;2023-12-07T14:26:10;15.68;;;9.73;;
4650;SDS011;2338;49.602;8.722;2023-12-07T14:28:56;13.45;;;9.85;;
4650;SDS011;2338;49.602;8.722;2023-12-07T14:31:41;16.20;;;10.40;;
4650;SDS011;2338;49.602;8.722;2023-12-07T14:34:27;15.30;;;10.63;;
4650;SDS011;2338;49.602;8.722;2023-12-07T14:37:13;16.58;;;11.43;;
4650;SDS011;2338;49.602;8.722;2023-12-07T14:40:00;17.92;;;10.63;;
4650;SDS011;2338;49.602;8.722;2023-12-07T14:42:48;19.05;;;10.10;;
4650;SDS011;2338;49.602;8.722;2023-12-07T14:45:34;22.98;;;10.80;;
4650;SDS011;2338;49.602;8.722;2023-12-07T14:48:21;20.77;;;10.52;;
4650;SDS011;2338;49.602;8.722;2023-12-07T14:51:07;13.02;;;9.50;;
4650;SDS011;2338;49.602;8.722;2023-12-07T14:53:53;16.02;;;11.85;;
4650;SDS011;2338;49.602;8.722;2023-12-07T14:56:40;13.65;;;10.75;;
4650;SDS011;2338;49.602;8.722;2023-12-07T14:59:27;14.00;;;10.20;;
4650;SDS011;2338;49.602;8.722;2023-12-07T15:02:13;17.98;;;11.40;;
4650;SDS011;2338;49.602;8.722;2023-12-07T15:04:59;18.02;;;10.85;;
4650;SDS011;2338;49.602;8.722;2023-12-07T15:07:44;14.13;;;10.43;;
4650;SDS011;2338;49.602;8.722;2023-12-07T15:10:30;14.50;;;11.10;;
4650;SDS011;2338;49.602;8.722;2023-12-07T15:13:17;13.52;;;9.77;;
4650;SDS011;2338;49.602;8.722;2023-12-07T15:16:03;16.60;;;9.85;;
4650;SDS011;2338;49.602;8.722;2023-12-07T15:18:49;17.73;;;11.35;;
4650;SDS011;2338;49.602;8.722;2023-12-07T15:21:35;13.75;;;9.73;;
4650;SDS011;2338;49.602;8.722;2023-12-07T15:24:21;18.15;;;11.82;;
4650;SDS011;2338;49.602;8.722;2023-12-07T15:27:07;15.95;;;10.85;;
4650;SDS011;2338;49.602;8.722;2023-12-07T15:29:55;12.85;;;10.40;;
4650;SDS011;2338;49.602;8.722;2023-12-07T15:32:40;15.98;;;11.00;;
4650;SDS011;2338;49.602;8.722;2023-12-07T15:35:26;14.20;;;9.75;;
4650;SDS011;2338;49.602;8.722;2023-12-07T15:38:12;15.43;;;11.50;;
4650;SDS011;2338;49.602;8.722;2023-12-07T15:40:57;16.08;;;11.20;;
4650;SDS011;2338;49.602;8.722;2023-12-07T15:43:46;15.43;;;9.68;;
4650;SDS011;2338;49.602;8.722;2023-12-07T15:46:33;15.07;;;10.60;;
4650;SDS011;2338;49.602;8.722;2023-12-07T15:49:18;16.83;;;10.10;;
4650;SDS011;2338;49.602;8.722;2023-12-07T15:52:04;14.77;;;10.27;;
4650;SDS011;2338;49.602;8.722;2023-12-07T15:54:50;17.60;;;10.50;;
4650;SDS011;2338;49.602;8.722;2023-12-07T15:57:36;17.55;;;12.82;;
4650;SDS011;2338;49.602;8.722;2023-12-07T16:00:21;17.70;;;10.35;;
4650;SDS011;2338;49.602;8.722;2023-12-07T16:03:08;15.75;;;11.88;;
4650;SDS011;2338;49.602;8.722;2023-12-07T16:05:54;15.52;;;12.68;;
4650;SDS011;2338;49.602;8.722;2023-12-07T16:08:40;25.17;;;13.48;;
4650;SDS011;2338;49.602;8.722;2023-12-07T16:11:26;19.58;;;13.13;;
4650;SDS011;2338;49.602;8.722;2023-12-07T16:14:12;17.52;;;13.82;;
4650;SDS011;2338;49.602;8.722;2023-12-07T16:16:58;23.40;;;11.88;;
4650;SDS011;2338;49.602;8.722;2023-12-07T16:19:45;16.70;;;12.00;;
4650;SDS011;2338;49.602;8.722;2023-12-07T16:22:30;20.35;;;12.93;;
4650;SDS011;2338;49.602;8.722;2023-12-07T16:25:17;16.75;;;13.15;;
4650;SDS011;2338;49.602;8.722;2023-12-07T16:28:02;18.27;;;12.73;;
4650;SDS011;2338;49.602;8.722;2023-12-07T16:30:49;16.08;;;12.27;;
4650;SDS011;2338;49.602;8.722;2023-12-07T16:33:35;15.07;;;11.60;;
4650;SDS011;2338;49.602;8.722;2023-12-07T16:36:22;17.98;;;13.45;;
4650;SDS011;2338;49.602;8.722;2023-12-07T16:39:09;17.73;;;11.25;;
4650;SDS011;2338;49.602;8.722;2023-12-07T16:41:55;18.75;;;12.48;;
4650;SDS011;2338;49.602;8.722;2023-12-07T16:44:41;19.52;;;13.73;;
4650;SDS011;2338;49.602;8.722;2023-12-07T16:47:28;18.60;;;12.80;;